HTI weather

Hamilton Island Airport
Hamilton Island, Queensland, Australia

Public forecast

Using degrees Celsius for public forecast. Weather courtesy of forecast.io.

METAR (pilot weather report)

Retrieved 2018/11/19 19:00 UTC (9 minutes ago):

YBHM 191900Z AUTO 09015KT 9999 // SCT021 SCT026 BKN046 25/20 Q1013

TAF (pilot weather forecast)

Forecast is more than 12 hours old.

Retrieved 2018/11/18 06:00 UTC (2 days ago):

TAF YBHM 180501Z 1806/1818 09014KT 9999 FEW025 FM181000 11014KT 9999 SCT020